sensor_id;sensor_type;location;lat;lon;timestamp;pressure;altitude;pressure_sealevel;temperature;humidity
49947;BME280;35839;48.662;13.300;2023-06-14T04:49:51;96986.50;;;13.54;87.13
49947;BME280;35839;48.662;13.300;2023-06-14T04:52:17;96989.41;;;13.59;87.74
49947;BME280;35839;48.662;13.300;2023-06-14T04:54:46;96987.75;;;13.66;86.34
49947;BME280;35839;48.662;13.300;2023-06-14T04:57:11;96987.91;;;13.64;86.90
49947;BME280;35839;48.662;13.300;2023-06-14T04:59:43;96986.41;;;14.00;85.15
49947;BME280;35839;48.662;13.300;2023-06-14T05:02:10;96992.38;;;14.23;84.64
49947;BME280;35839;48.662;13.300;2023-06-14T05:04:35;96983.00;;;14.50;87.13
49947;BME280;35839;48.662;13.300;2023-06-14T05:07:07;96978.53;;;14.51;88.96
49947;BME280;35839;48.662;13.300;2023-06-14T05:09:33;96987.63;;;14.78;89.17
49947;BME280;35839;48.662;13.300;2023-06-14T05:11:58;96993.56;;;14.87;89.70
49947;BME280;35839;48.662;13.300;2023-06-14T05:14:25;96991.72;;;15.02;89.52
49947;BME280;35839;48.662;13.300;2023-06-14T05:16:51;96983.78;;;15.24;87.48
49947;BME280;35839;48.662;13.300;2023-06-14T05:19:16;96989.59;;;15.34;85.82
49947;BME280;35839;48.662;13.300;2023-06-14T05:21:43;96996.09;;;15.38;85.14
49947;BME280;35839;48.662;13.300;2023-06-14T05:24:09;96985.59;;;15.45;82.75
49947;BME280;35839;48.662;13.300;2023-06-14T05:26:34;96997.81;;;15.52;81.84
49947;BME280;35839;48.662;13.300;2023-06-14T05:29:00;96995.50;;;15.64;82.00
49947;BME280;35839;48.662;13.300;2023-06-14T05:31:27;97009.91;;;15.83;82.49
49947;BME280;35839;48.662;13.300;2023-06-14T05:33:53;97011.63;;;15.97;81.32
49947;BME280;35839;48.662;13.300;2023-06-14T05:36:19;97010.88;;;16.10;78.59
49947;BME280;35839;48.662;13.300;2023-06-14T05:38:45;97014.41;;;16.24;78.78
49947;BME280;35839;48.662;13.300;2023-06-14T05:41:10;97017.56;;;16.41;76.50
49947;BME280;35839;48.662;13.300;2023-06-14T05:43:36;97015.19;;;16.59;76.38
49947;BME280;35839;48.662;13.300;2023-06-14T05:46:01;97007.91;;;16.68;75.48
49947;BME280;35839;48.662;13.300;2023-06-14T05:48:26;97006.28;;;16.67;73.87
49947;BME280;35839;48.662;13.300;2023-06-14T05:50:52;97018.63;;;16.95;73.38
49947;BME280;35839;48.662;13.300;2023-06-14T05:53:17;97014.53;;;16.99;71.38
49947;BME280;35839;48.662;13.300;2023-06-14T05:55:42;97017.84;;;17.14;69.57
49947;BME280;35839;48.662;13.300;2023-06-14T05:58:08;97015.22;;;17.21;72.38
49947;BME280;35839;48.662;13.300;2023-06-14T06:00:33;97032.31;;;17.32;70.84
49947;BME280;35839;48.662;13.300;2023-06-14T06:02:58;97032.69;;;17.22;70.09
49947;BME280;35839;48.662;13.300;2023-06-14T06:05:24;97033.75;;;17.41;68.00
49947;BME280;35839;48.662;13.300;2023-06-14T06:07:50;97038.25;;;17.47;69.61
49947;BME280;35839;48.662;13.300;2023-06-14T06:10:15;97027.06;;;17.58;68.08
49947;BME280;35839;48.662;13.300;2023-06-14T06:12:42;97030.94;;;17.56;69.28
49947;BME280;35839;48.662;13.300;2023-06-14T06:15:08;97031.13;;;17.67;65.91
49947;BME280;35839;48.662;13.300;2023-06-14T06:17:37;97035.00;;;17.78;68.23
49947;BME280;35839;48.662;13.300;2023-06-14T06:20:03;97026.25;;;17.98;67.50
49947;BME280;35839;48.662;13.300;2023-06-14T06:22:28;97038.28;;;18.14;66.71
49947;BME280;35839;48.662;13.300;2023-06-14T06:24:53;97036.81;;;18.18;67.58
49947;BME280;35839;48.662;13.300;2023-06-14T06:27:19;97031.31;;;18.26;64.34
49947;BME280;35839;48.662;13.300;2023-06-14T06:29:45;97043.69;;;18.39;64.03
49947;BME280;35839;48.662;13.300;2023-06-14T06:32:10;97039.81;;;18.41;62.62
49947;BME280;35839;48.662;13.300;2023-06-14T06:34:36;97041.47;;;18.42;62.65
49947;BME280;35839;48.662;13.300;2023-06-14T06:37:02;97048.78;;;18.53;61.61
49947;BME280;35839;48.662;13.300;2023-06-14T06:39:27;97048.97;;;18.52;62.14
49947;BME280;35839;48.662;13.300;2023-06-14T06:41:53;97052.22;;;18.67;61.24
49947;BME280;35839;48.662;13.300;2023-06-14T06:44:18;97055.66;;;18.81;60.91
49947;BME280;35839;48.662;13.300;2023-06-14T06:46:43;97053.09;;;19.00;60.32
49947;BME280;35839;48.662;13.300;2023-06-14T06:49:09;97049.22;;;19.02;60.21
49947;BME280;35839;48.662;13.300;2023-06-14T06:51:37;97047.66;;;19.26;57.48
49947;BME280;35839;48.662;13.300;2023-06-14T06:54:02;97050.28;;;19.33;57.10
49947;BME280;35839;48.662;13.300;2023-06-14T06:56:28;97054.09;;;19.44;57.75
49947;BME280;35839;48.662;13.300;2023-06-14T06:58:53;97058.22;;;19.65;57.87
49947;BME280;35839;48.662;13.300;2023-06-14T07:01:18;97058.53;;;19.50;56.58
49947;BME280;35839;48.662;13.300;2023-06-14T07:03:45;97059.28;;;19.25;56.53
49947;BME280;35839;48.662;13.300;2023-06-14T07:06:10;97063.13;;;19.36;58.81
49947;BME280;35839;48.662;13.300;2023-06-14T07:08:36;97070.25;;;19.42;57.14
49947;BME280;35839;48.662;13.300;2023-06-14T07:11:03;97069.88;;;19.70;55.55
49947;BME280;35839;48.662;13.300;2023-06-14T07:13:30;97069.28;;;19.93;55.04
49947;BME280;35839;48.662;13.300;2023-06-14T07:15:58;97070.25;;;19.99;54.92
49947;BME280;35839;48.662;13.300;2023-06-14T07:18:23;97065.00;;;20.17;53.72
49947;BME280;35839;48.662;13.300;2023-06-14T07:20:49;97068.25;;;20.19;55.01
49947;BME280;35839;48.662;13.300;2023-06-14T07:23:15;97067.06;;;20.34;54.65
49947;BME280;35839;48.662;13.300;2023-06-14T07:25:40;97064.84;;;20.12;55.12
49947;BME280;35839;48.662;13.300;2023-06-14T07:28:05;97063.78;;;20.13;54.72
49947;BME280;35839;48.662;13.300;2023-06-14T07:30:31;97066.94;;;20.29;53.94
49947;BME280;35839;48.662;13.300;2023-06-14T07:32:57;97070.94;;;20.38;53.32
49947;BME280;35839;48.662;13.300;2023-06-14T07:35:22;97064.63;;;20.57;52.94
49947;BME280;35839;48.662;13.300;2023-06-14T07:37:47;97061.66;;;20.66;52.79
49947;BME280;35839;48.662;13.300;2023-06-14T07:40:13;97063.88;;;20.87;52.50
49947;BME280;35839;48.662;13.300;2023-06-14T07:42:39;97070.19;;;21.04;51.79
49947;BME280;35839;48.662;13.300;2023-06-14T07:45:05;97067.41;;;20.62;50.91
49947;BME280;35839;48.662;13.300;2023-06-14T07:47:31;97073.78;;;20.80;49.78
49947;BME280;35839;48.662;13.300;2023-06-14T07:49:56;97075.78;;;20.84;50.45
49947;BME280;35839;48.662;13.300;2023-06-14T07:52:21;97070.38;;;20.91;49.62
49947;BME280;35839;48.662;13.300;2023-06-14T07:54:47;97072.19;;;21.09;50.91
49947;BME280;35839;48.662;13.300;2023-06-14T07:57:12;97063.94;;;21.29;49.11
49947;BME280;35839;48.662;13.300;2023-06-14T07:59:38;97070.28;;;21.46;48.90
49947;BME280;35839;48.662;13.300;2023-06-14T08:02:04;97069.78;;;21.68;47.87
49947;BME280;35839;48.662;13.300;2023-06-14T08:04:29;97081.50;;;21.91;47.32
49947;BME280;35839;48.662;13.300;2023-06-14T08:06:54;97078.22;;;21.77;47.61
49947;BME280;35839;48.662;13.300;2023-06-14T08:09:19;97085.13;;;21.96;44.96
49947;BME280;35839;48.662;13.300;2023-06-14T08:11:45;97087.75;;;21.84;43.85
49947;BME280;35839;48.662;13.300;2023-06-14T08:14:10;97084.19;;;22.02;43.64
49947;BME280;35839;48.662;13.300;2023-06-14T08:16:36;97082.88;;;21.93;44.56
49947;BME280;35839;48.662;13.300;2023-06-14T08:19:01;97072.81;;;22.19;45.24
49947;BME280;35839;48.662;13.300;2023-06-14T08:21:26;97079.72;;;22.26;43.89
49947;BME280;35839;48.662;13.300;2023-06-14T08:23:54;97078.41;;;22.64;43.86
49947;BME280;35839;48.662;13.300;2023-06-14T08:26:20;97073.50;;;22.85;43.15
49947;BME280;35839;48.662;13.300;2023-06-14T08:28:46;97076.84;;;22.92;43.90
49947;BME280;35839;48.662;13.300;2023-06-14T08:31:11;97086.59;;;22.86;41.77
49947;BME280;35839;48.662;13.300;2023-06-14T08:33:36;97078.00;;;22.96;41.60
49947;BME280;35839;48.662;13.300;2023-06-14T08:36:01;97076.59;;;22.93;41.32
49947;BME280;35839;48.662;13.300;2023-06-14T08:38:27;97081.25;;;22.86;41.49
49947;BME280;35839;48.662;13.300;2023-06-14T08:40:56;97077.41;;;23.34;39.90
49947;BME280;35839;48.662;13.300;2023-06-14T08:43:22;97078.81;;;23.37;40.80
49947;BME280;35839;48.662;13.300;2023-06-14T08:45:48;97075.75;;;23.74;39.39
49947;BME280;35839;48.662;13.300;2023-06-14T08:48:18;97082.78;;;23.51;38.47
49947;BME280;35839;48.662;13.300;2023-06-14T08:50:46;97084.22;;;23.42;37.14
49947;BME280;35839;48.662;13.300;2023-06-14T08:53:14;97086.91;;;23.13;38.68
49947;BME280;35839;48.662;13.300;2023-06-14T08:55:41;97090.81;;;22.47;39.18
49947;BME280;35839;48.662;13.300;2023-06-14T08:58:08;97083.09;;;22.34;39.63
49947;BME280;35839;48.662;13.300;2023-06-14T09:00:34;97091.19;;;22.50;39.74
49947;BME280;35839;48.662;13.300;2023-06-14T09:03:02;97089.44;;;23.20;38.93
49947;BME280;35839;48.662;13.300;2023-06-14T09:05:28;97080.25;;;22.76;39.39
49947;BME280;35839;48.662;13.300;2023-06-14T09:07:54;97084.72;;;23.39;38.89
49947;BME280;35839;48.662;13.300;2023-06-14T09:10:22;97082.47;;;23.93;38.32
49947;BME280;35839;48.662;13.300;2023-06-14T09:12:47;97084.75;;;24.18;37.73
49947;BME280;35839;48.662;13.300;2023-06-14T09:15:13;97079.47;;;24.24;36.82
49947;BME280;35839;48.662;13.300;2023-06-14T09:17:39;97083.25;;;24.45;36.49
49947;BME280;35839;48.662;13.300;2023-06-14T09:20:06;97087.22;;;24.42;34.39
49947;BME280;35839;48.662;13.300;2023-06-14T09:22:32;97094.81;;;24.67;35.06
49947;BME280;35839;48.662;13.300;2023-06-14T09:24:58;97085.38;;;24.81;34.93
49947;BME280;35839;48.662;13.300;2023-06-14T09:27:26;97089.78;;;25.15;34.25
49947;BME280;35839;48.662;13.300;2023-06-14T09:29:52;97083.13;;;25.39;35.54
49947;BME280;35839;48.662;13.300;2023-06-14T09:32:17;97094.22;;;25.48;32.22
49947;BME280;35839;48.662;13.300;2023-06-14T09:34:43;97089.63;;;25.21;33.65
49947;BME280;35839;48.662;13.300;2023-06-14T09:37:08;97095.22;;;24.98;32.58
49947;BME280;35839;48.662;13.300;2023-06-14T09:39:33;97091.19;;;25.67;32.27
49947;BME280;35839;48.662;13.300;2023-06-14T09:41:59;97083.97;;;25.99;31.27
49947;BME280;35839;48.662;13.300;2023-06-14T09:44:25;97091.91;;;26.21;31.51
49947;BME280;35839;48.662;13.300;2023-06-14T09:46:55;97088.44;;;25.89;32.36
49947;BME280;35839;48.662;13.300;2023-06-14T09:49:21;97092.69;;;26.17;31.44
49947;BME280;35839;48.662;13.300;2023-06-14T09:51:50;97086.25;;;25.85;32.51
49947;BME280;35839;48.662;13.300;2023-06-14T09:54:20;97080.94;;;26.65;29.58
49947;BME280;35839;48.662;13.300;2023-06-14T09:56:48;97079.63;;;26.73;30.20
49947;BME280;35839;48.662;13.300;2023-06-14T09:59:21;97085.56;;;26.75;30.23
49947;BME280;35839;48.662;13.300;2023-06-14T10:01:52;97084.25;;;27.61;28.63
49947;BME280;35839;48.662;13.300;2023-06-14T10:04:21;97092.66;;;27.90;26.42
49947;BME280;35839;48.662;13.300;2023-06-14T10:06:47;97088.31;;;27.74;27.45
49947;BME280;35839;48.662;13.300;2023-06-14T10:09:13;97089.03;;;27.39;26.88
49947;BME280;35839;48.662;13.300;2023-06-14T10:11:40;97098.38;;;26.63;29.61
49947;BME280;35839;48.662;13.300;2023-06-14T10:14:09;97097.22;;;25.57;30.99
49947;BME280;35839;48.662;13.300;2023-06-14T10:16:39;97094.22;;;25.48;31.38
49947;BME280;35839;48.662;13.300;2023-06-14T10:19:17;97086.63;;;24.96;32.17
49947;BME280;35839;48.662;13.300;2023-06-14T10:24:38;97087.94;;;25.15;31.14
49947;BME280;35839;48.662;13.300;2023-06-14T10:27:06;97085.50;;;24.92;32.17
49947;BME280;35839;48.662;13.300;2023-06-14T10:32:24;97091.94;;;24.52;33.05
49947;BME280;35839;48.662;13.300;2023-06-14T10:34:59;97091.66;;;24.70;32.21
49947;BME280;35839;48.662;13.300;2023-06-14T10:37:25;97084.06;;;24.62;31.62
49947;BME280;35839;48.662;13.300;2023-06-14T10:39:51;97089.53;;;24.72;31.99
49947;BME280;35839;48.662;13.300;2023-06-14T10:42:16;97091.72;;;24.75;31.57
49947;BME280;35839;48.662;13.300;2023-06-14T10:44:49;97089.59;;;24.77;32.54
49947;BME280;35839;48.662;13.300;2023-06-14T10:49:52;97092.59;;;23.74;34.30
49947;BME280;35839;48.662;13.300;2023-06-14T10:52:21;97094.03;;;23.82;33.67
49947;BME280;35839;48.662;13.300;2023-06-14T10:57:42;97088.34;;;23.62;33.78
49947;BME280;35839;48.662;13.300;2023-06-14T11:00:09;97088.91;;;23.64;33.79
49947;BME280;35839;48.662;13.300;2023-06-14T11:05:14;97088.88;;;23.92;33.24
49947;BME280;35839;48.662;13.300;2023-06-14T11:08:03;97085.81;;;24.17;32.67
49947;BME280;35839;48.662;13.300;2023-06-14T11:10:43;97090.03;;;23.96;33.19
49947;BME280;35839;48.662;13.300;2023-06-14T11:13:10;97094.72;;;24.06;33.37
49947;BME280;35839;48.662;13.300;2023-06-14T11:15:37;97088.38;;;23.95;33.10
49947;BME280;35839;48.662;13.300;2023-06-14T11:18:05;97095.25;;;23.74;33.04
49947;BME280;35839;48.662;13.300;2023-06-14T11:20:33;97092.28;;;23.88;33.40
49947;BME280;35839;48.662;13.300;2023-06-14T11:22:58;97080.59;;;23.77;33.85
49947;BME280;35839;48.662;13.300;2023-06-14T11:25:25;97079.47;;;24.07;33.60
49947;BME280;35839;48.662;13.300;2023-06-14T11:27:50;97079.94;;;24.37;32.29
49947;BME280;35839;48.662;13.300;2023-06-14T11:30:16;97085.31;;;24.04;33.35
49947;BME280;35839;48.662;13.300;2023-06-14T11:32:42;97090.97;;;24.24;33.08
49947;BME280;35839;48.662;13.300;2023-06-14T11:35:08;97083.44;;;24.55;32.86
49947;BME280;35839;48.662;13.300;2023-06-14T11:37:36;97075.03;;;24.68;31.66
49947;BME280;35839;48.662;13.300;2023-06-14T11:40:03;97071.97;;;24.59;31.88
49947;BME280;35839;48.662;13.300;2023-06-14T11:42:34;97073.34;;;24.84;32.02
49947;BME280;35839;48.662;13.300;2023-06-14T11:45:00;97075.47;;;25.04;31.92
49947;BME280;35839;48.662;13.300;2023-06-14T11:47:34;97072.66;;;25.38;31.29
49947;BME280;35839;48.662;13.300;2023-06-14T11:50:00;97069.88;;;25.28;31.39
49947;BME280;35839;48.662;13.300;2023-06-14T11:52:26;97071.31;;;25.13;31.91
49947;BME280;35839;48.662;13.300;2023-06-14T11:54:51;97067.97;;;25.50;30.60
49947;BME280;35839;48.662;13.300;2023-06-14T11:57:20;97068.50;;;25.52;30.62
49947;BME280;35839;48.662;13.300;2023-06-14T11:59:46;97063.53;;;25.93;30.53
49947;BME280;35839;48.662;13.300;2023-06-14T12:02:16;97064.72;;;26.07;31.89
49947;BME280;35839;48.662;13.300;2023-06-14T12:04:42;97070.91;;;25.81;30.39
49947;BME280;35839;48.662;13.300;2023-06-14T12:07:10;97060.16;;;25.76;31.60
49947;BME280;35839;48.662;13.300;2023-06-14T12:12:17;97064.53;;;25.87;31.74
49947;BME280;35839;48.662;13.300;2023-06-14T12:14:42;97059.06;;;25.77;30.82
49947;BME280;35839;48.662;13.300;2023-06-14T12:17:07;97062.50;;;25.99;31.47
49947;BME280;35839;48.662;13.300;2023-06-14T12:19:33;97065.06;;;26.21;30.81
49947;BME280;35839;48.662;13.300;2023-06-14T12:22:06;97064.28;;;26.68;30.21
49947;BME280;35839;48.662;13.300;2023-06-14T12:24:34;97062.38;;;26.59;31.32
49947;BME280;35839;48.662;13.300;2023-06-14T12:26:59;97066.53;;;26.39;30.86
49947;BME280;35839;48.662;13.300;2023-06-14T12:29:25;97068.00;;;26.20;30.91
49947;BME280;35839;48.662;13.300;2023-06-14T12:31:51;97064.91;;;26.38;30.51
49947;BME280;35839;48.662;13.300;2023-06-14T12:34:18;97057.03;;;26.64;28.83
49947;BME280;35839;48.662;13.300;2023-06-14T12:36:44;97061.09;;;27.50;29.07
49947;BME280;35839;48.662;13.300;2023-06-14T12:39:11;97063.28;;;28.25;27.46
49947;BME280;35839;48.662;13.300;2023-06-14T12:41:36;97061.41;;;28.30;27.55
49947;BME280;35839;48.662;13.300;2023-06-14T12:44:02;97066.31;;;28.98;27.21
49947;BME280;35839;48.662;13.300;2023-06-14T12:46:30;97057.00;;;29.35;26.65
49947;BME280;35839;48.662;13.300;2023-06-14T12:48:56;97057.78;;;29.80;25.62
49947;BME280;35839;48.662;13.300;2023-06-14T12:51:22;97051.09;;;30.07;25.85
49947;BME280;35839;48.662;13.300;2023-06-14T12:53:47;97045.84;;;29.92;24.22
49947;BME280;35839;48.662;13.300;2023-06-14T12:56:14;97051.84;;;30.42;24.21
49947;BME280;35839;48.662;13.300;2023-06-14T12:58:39;97053.69;;;30.17;23.65
49947;BME280;35839;48.662;13.300;2023-06-14T13:01:04;97057.09;;;29.99;25.59
49947;BME280;35839;48.662;13.300;2023-06-14T13:03:30;97068.41;;;29.22;26.35
49947;BME280;35839;48.662;13.300;2023-06-14T13:05:55;97067.09;;;29.98;25.64
49947;BME280;35839;48.662;13.300;2023-06-14T13:08:21;97067.81;;;28.45;26.09
49947;BME280;35839;48.662;13.300;2023-06-14T13:10:47;97059.00;;;27.98;26.07
49947;BME280;35839;48.662;13.300;2023-06-14T13:13:12;97062.69;;;27.36;28.97
49947;BME280;35839;48.662;13.300;2023-06-14T13:15:38;97057.91;;;27.99;28.97
49947;BME280;35839;48.662;13.300;2023-06-14T13:18:04;97051.84;;;28.84;28.25
49947;BME280;35839;48.662;13.300;2023-06-14T13:20:30;97046.91;;;29.91;26.92
49947;BME280;35839;48.662;13.300;2023-06-14T13:22:55;97047.25;;;29.45;25.82
49947;BME280;35839;48.662;13.300;2023-06-14T13:25:21;97048.84;;;30.73;25.50
49947;BME280;35839;48.662;13.300;2023-06-14T13:27:47;97045.25;;;31.01;26.02
49947;BME280;35839;48.662;13.300;2023-06-14T13:30:13;97040.25;;;31.52;25.13
49947;BME280;35839;48.662;13.300;2023-06-14T13:32:38;97038.72;;;30.59;24.47
49947;BME280;35839;48.662;13.300;2023-06-14T13:35:04;97042.56;;;28.15;26.88
49947;BME280;35839;48.662;13.300;2023-06-14T13:37:30;97046.06;;;28.46;27.10
49947;BME280;35839;48.662;13.300;2023-06-14T13:39:55;97042.91;;;29.44;24.60
49947;BME280;35839;48.662;13.300;2023-06-14T13:42:20;97042.00;;;29.19;26.18
49947;BME280;35839;48.662;13.300;2023-06-14T13:44:45;97045.81;;;27.97;26.17
49947;BME280;35839;48.662;13.300;2023-06-14T13:47:11;97045.78;;;27.56;28.88
49947;BME280;35839;48.662;13.300;2023-06-14T13:49:37;97040.94;;;27.63;27.58
49947;BME280;35839;48.662;13.300;2023-06-14T13:52:02;97034.38;;;27.07;28.31
49947;BME280;35839;48.662;13.300;2023-06-14T13:54:28;97042.19;;;27.14;28.80
49947;BME280;35839;48.662;13.300;2023-06-14T13:56:53;97045.06;;;26.92;29.01
49947;BME280;35839;48.662;13.300;2023-06-14T13:59:19;97039.66;;;26.82;28.52
49947;BME280;35839;48.662;13.300;2023-06-14T14:01:45;97043.13;;;26.77;28.99
49947;BME280;35839;48.662;13.300;2023-06-14T14:04:10;97035.56;;;26.21;29.49
49947;BME280;35839;48.662;13.300;2023-06-14T14:06:36;97037.06;;;26.49;30.52
49947;BME280;35839;48.662;13.300;2023-06-14T14:09:01;97042.03;;;26.25;31.33
49947;BME280;35839;48.662;13.300;2023-06-14T14:11:27;97036.59;;;27.21;29.60
49947;BME280;35839;48.662;13.300;2023-06-14T14:13:53;97039.72;;;28.82;28.08
49947;BME280;35839;48.662;13.300;2023-06-14T14:16:18;97031.28;;;29.48;27.32
49947;BME280;35839;48.662;13.300;2023-06-14T14:18:45;97033.19;;;29.48;27.50
49947;BME280;35839;48.662;13.300;2023-06-14T14:21:11;97036.69;;;30.70;26.11
49947;BME280;35839;48.662;13.300;2023-06-14T14:23:36;97031.28;;;30.94;25.50
49947;BME280;35839;48.662;13.300;2023-06-14T14:26:01;97040.09;;;31.24;25.59
49947;BME280;35839;48.662;13.300;2023-06-14T14:28:29;97041.44;;;31.02;25.94
49947;BME280;35839;48.662;13.300;2023-06-14T14:30:55;97039.25;;;31.04;25.58
49947;BME280;35839;48.662;13.300;2023-06-14T14:33:20;97037.88;;;31.07;25.67
49947;BME280;35839;48.662;13.300;2023-06-14T14:35:45;97035.06;;;31.55;25.50
49947;BME280;35839;48.662;13.300;2023-06-14T14:38:11;97033.38;;;31.92;24.93
49947;BME280;35839;48.662;13.300;2023-06-14T14:40:37;97038.91;;;30.63;25.20
49947;BME280;35839;48.662;13.300;2023-06-14T14:43:02;97036.94;;;31.17;24.04
49947;BME280;35839;48.662;13.300;2023-06-14T14:45:27;97034.00;;;31.32;24.54
49947;BME280;35839;48.662;13.300;2023-06-14T14:47:52;97039.34;;;30.99;24.24
49947;BME280;35839;48.662;13.300;2023-06-14T14:50:18;97038.53;;;31.18;25.35
49947;BME280;35839;48.662;13.300;2023-06-14T14:52:43;97039.69;;;32.20;25.28
49947;BME280;35839;48.662;13.300;2023-06-14T14:55:09;97040.19;;;32.22;22.35
49947;BME280;35839;48.662;13.300;2023-06-14T14:57:34;97035.41;;;32.47;22.40
49947;BME280;35839;48.662;13.300;2023-06-14T15:00:02;97035.03;;;32.53;22.44
49947;BME280;35839;48.662;13.300;2023-06-14T15:02:27;97032.72;;;32.74;22.83
49947;BME280;35839;48.662;13.300;2023-06-14T15:04:53;97037.63;;;32.59;24.19
49947;BME280;35839;48.662;13.300;2023-06-14T15:07:19;97033.34;;;32.71;23.34
49947;BME280;35839;48.662;13.300;2023-06-14T15:09:44;97044.41;;;32.15;24.12
49947;BME280;35839;48.662;13.300;2023-06-14T15:12:10;97039.00;;;32.15;22.53
49947;BME280;35839;48.662;13.300;2023-06-14T15:14:36;97045.56;;;31.76;23.94
49947;BME280;35839;48.662;13.300;2023-06-14T15:17:01;97036.59;;;32.96;23.22
49947;BME280;35839;48.662;13.300;2023-06-14T15:19:27;97043.56;;;31.81;22.92
49947;BME280;35839;48.662;13.300;2023-06-14T15:21:53;97033.22;;;32.77;23.48
49947;BME280;35839;48.662;13.300;2023-06-14T15:24:18;97037.06;;;32.62;22.55
49947;BME280;35839;48.662;13.300;2023-06-14T15:26:43;97040.88;;;30.81;25.19
49947;BME280;35839;48.662;13.300;2023-06-14T15:29:09;97041.47;;;30.54;24.99
49947;BME280;35839;48.662;13.300;2023-06-14T15:31:34;97042.31;;;32.25;24.31
49947;BME280;35839;48.662;13.300;2023-06-14T15:33:59;97046.88;;;32.71;22.88
49947;BME280;35839;48.662;13.300;2023-06-14T15:36:24;97045.22;;;33.26;23.31
49947;BME280;35839;48.662;13.300;2023-06-14T15:38:50;97048.22;;;31.62;22.61
49947;BME280;35839;48.662;13.300;2023-06-14T15:41:15;97045.75;;;31.79;24.38
49947;BME280;35839;48.662;13.300;2023-06-14T15:43:41;97040.66;;;31.40;22.63
49947;BME280;35839;48.662;13.300;2023-06-14T15:46:06;97037.56;;;29.38;24.82
49947;BME280;35839;48.662;13.300;2023-06-14T15:48:32;97045.81;;;27.91;26.60
49947;BME280;35839;48.662;13.300;2023-06-14T15:50:57;97038.88;;;26.91;27.55
49947;BME280;35839;48.662;13.300;2023-06-14T15:53:22;97036.94;;;26.77;28.80
49947;BME280;35839;48.662;13.300;2023-06-14T15:55:48;97032.47;;;26.98;28.30
49947;BME280;35839;48.662;13.300;2023-06-14T15:58:13;97040.91;;;26.64;29.07
49947;BME280;35839;48.662;13.300;2023-06-14T16:00:39;97042.59;;;26.80;31.17
49947;BME280;35839;48.662;13.300;2023-06-14T16:03:04;97038.84;;;25.91;30.01
49947;BME280;35839;48.662;13.300;2023-06-14T16:05:30;97042.41;;;25.70;31.21
49947;BME280;35839;48.662;13.300;2023-06-14T16:07:55;97036.94;;;25.59;32.63
49947;BME280;35839;48.662;13.300;2023-06-14T16:10:20;97043.28;;;25.80;31.20
49947;BME280;35839;48.662;13.300;2023-06-14T16:12:45;97040.56;;;26.07;32.28
49947;BME280;35839;48.662;13.300;2023-06-14T16:15:11;97036.34;;;26.17;31.43
49947;BME280;35839;48.662;13.300;2023-06-14T16:17:36;97039.16;;;25.68;33.33
49947;BME280;35839;48.662;13.300;2023-06-14T16:20:02;97043.50;;;25.74;31.72
49947;BME280;35839;48.662;13.300;2023-06-14T16:22:27;97041.53;;;25.91;31.72
49947;BME280;35839;48.662;13.300;2023-06-14T16:24:52;97045.44;;;25.78;32.28
49947;BME280;35839;48.662;13.300;2023-06-14T16:27:18;97040.16;;;25.61;31.05
49947;BME280;35839;48.662;13.300;2023-06-14T16:29:43;97051.00;;;25.72;31.33
49947;BME280;35839;48.662;13.300;2023-06-14T16:32:08;97054.03;;;25.26;32.41
49947;BME280;35839;48.662;13.300;2023-06-14T16:34:34;97058.69;;;25.36;32.31
49947;BME280;35839;48.662;13.300;2023-06-14T16:37:00;97063.59;;;25.71;33.53
49947;BME280;35839;48.662;13.300;2023-06-14T16:39:26;97063.28;;;25.40;32.76
49947;BME280;35839;48.662;13.300;2023-06-14T16:41:51;97064.63;;;25.16;33.10
49947;BME280;35839;48.662;13.300;2023-06-14T16:44:16;97067.25;;;24.67;34.37
49947;BME280;35839;48.662;13.300;2023-06-14T16:46:42;97069.81;;;25.77;34.29
49947;BME280;35839;48.662;13.300;2023-06-14T16:49:07;97072.72;;;26.40;32.59
49947;BME280;35839;48.662;13.300;2023-06-14T16:51:32;97070.31;;;25.74;33.89
49947;BME280;35839;48.662;13.300;2023-06-14T16:53:58;97079.06;;;25.15;34.60
49947;BME280;35839;48.662;13.300;2023-06-14T16:56:23;97087.38;;;25.13;35.40
49947;BME280;35839;48.662;13.300;2023-06-14T16:58:53;97085.69;;;24.85;35.52
49947;BME280;35839;48.662;13.300;2023-06-14T17:01:20;97090.97;;;24.80;35.74
49947;BME280;35839;48.662;13.300;2023-06-14T17:03:45;97095.91;;;24.32;35.19
49947;BME280;35839;48.662;13.300;2023-06-14T17:06:11;97099.09;;;24.29;35.34
49947;BME280;35839;48.662;13.300;2023-06-14T17:08:36;97096.78;;;24.38;35.82
49947;BME280;35839;48.662;13.300;2023-06-14T17:11:01;97100.13;;;24.28;36.80
49947;BME280;35839;48.662;13.300;2023-06-14T17:13:26;97107.59;;;24.26;35.90
49947;BME280;35839;48.662;13.300;2023-06-14T17:15:52;97104.09;;;24.26;35.67
49947;BME280;35839;48.662;13.300;2023-06-14T17:18:17;97114.16;;;24.35;36.38
49947;BME280;35839;48.662;13.300;2023-06-14T17:20:43;97114.78;;;24.43;36.23
49947;BME280;35839;48.662;13.300;2023-06-14T17:23:08;97111.13;;;24.66;35.72
49947;BME280;35839;48.662;13.300;2023-06-14T17:25:34;97110.13;;;24.16;35.85
49947;BME280;35839;48.662;13.300;2023-06-14T17:27:59;97115.53;;;24.04;36.68
49947;BME280;35839;48.662;13.300;2023-06-14T17:30:24;97111.25;;;24.20;36.09
49947;BME280;35839;48.662;13.300;2023-06-14T17:32:52;97128.03;;;24.15;36.22
49947;BME280;35839;48.662;13.300;2023-06-14T17:35:17;97128.84;;;23.99;36.56
49947;BME280;35839;48.662;13.300;2023-06-14T17:37:43;97136.22;;;24.09;36.54
49947;BME280;35839;48.662;13.300;2023-06-14T17:40:08;97132.88;;;24.18;35.85
49947;BME280;35839;48.662;13.300;2023-06-14T17:42:34;97132.47;;;24.10;35.43
49947;BME280;35839;48.662;13.300;2023-06-14T17:44:59;97138.81;;;24.04;36.41
49947;BME280;35839;48.662;13.300;2023-06-14T17:47:25;97144.53;;;23.95;36.14
49947;BME280;35839;48.662;13.300;2023-06-14T17:49:51;97141.50;;;23.75;37.22